createdAt,value
2018-09-24T00:00:07.768Z,70.60
2018-09-24T00:02:38.514Z,70.70
2018-09-24T00:05:09.152Z,70.90
2018-09-24T00:07:42.383Z,70.50
2018-09-24T00:10:12.913Z,71.10
2018-09-24T00:12:44.609Z,71.60
2018-09-24T00:15:15.311Z,71.70
2018-09-24T00:17:45.653Z,71.80
2018-09-24T00:20:16.668Z,71.40
2018-09-24T00:22:47.382Z,70.90
2018-09-24T00:25:19.116Z,70.70
2018-09-24T00:27:49.537Z,70.80
2018-09-24T00:30:20.927Z,70.90
2018-09-24T00:32:51.334Z,69.90
2018-09-24T00:35:21.827Z,70.10
2018-09-24T00:37:52.709Z,70.10
2018-09-24T00:40:23.281Z,70.30
2018-09-24T00:42:54.120Z,70.80
2018-09-24T00:45:24.793Z,70.90
2018-09-24T00:47:55.207Z,71.00
2018-09-24T00:50:26.502Z,70.70
2018-09-24T00:52:56.911Z,70.20
2018-09-24T00:55:28.792Z,70.30
2018-09-24T00:58:02.288Z,70.00
2018-09-24T01:00:32.990Z,69.70
2018-09-24T01:03:04.105Z,69.70
2018-09-24T01:05:35.250Z,69.70
2018-09-24T01:08:06.022Z,69.50
2018-09-24T01:10:36.955Z,69.20
2018-09-24T01:13:09.669Z,68.80
2018-09-24T01:15:40.046Z,68.70
2018-09-24T01:18:10.557Z,68.70
2018-09-24T01:20:41.279Z,68.70
2018-09-24T01:23:12.274Z,67.80
2018-09-24T01:25:42.632Z,68.00
2018-09-24T01:28:13.023Z,68.00
2018-09-24T01:30:43.803Z,67.60
2018-09-24T01:33:14.308Z,68.00
2018-09-24T01:35:44.903Z,68.90
2018-09-24T01:38:15.279Z,68.80
2018-09-24T01:40:45.926Z,69.40
2018-09-24T01:43:17.157Z,69.70
2018-09-24T01:45:47.559Z,69.70
2018-09-24T01:48:18.366Z,69.70
2018-09-24T01:50:48.759Z,69.70
2018-09-24T01:53:19.112Z,69.60
2018-09-24T01:55:51.691Z,69.20
2018-09-24T01:58:22.126Z,68.90
2018-09-24T02:00:52.964Z,69.30
2018-09-24T02:03:29.606Z,69.00
2018-09-24T02:06:00.020Z,69.10
2018-09-24T02:08:31.566Z,69.30
2018-09-24T02:11:01.993Z,69.80
2018-09-24T02:13:32.505Z,69.60
2018-09-24T02:16:02.838Z,70.10
2018-09-24T02:18:33.259Z,70.00
2018-09-24T02:21:03.589Z,69.60
2018-09-24T02:23:33.954Z,69.60
2018-09-24T02:26:04.342Z,69.60
2018-09-24T02:28:34.730Z,69.60
2018-09-24T02:31:05.175Z,69.40
2018-09-24T02:33:35.510Z,69.00
2018-09-24T02:36:05.947Z,68.60
2018-09-24T02:38:41.093Z,68.50
2018-09-24T02:41:11.707Z,68.10
2018-09-24T02:43:42.145Z,67.90
2018-09-24T02:46:12.469Z,68.30
2018-09-24T02:48:42.800Z,68.80
2018-09-24T02:51:13.106Z,69.00
2018-09-24T02:53:43.452Z,69.40
2018-09-24T02:56:13.850Z,68.80
2018-09-24T02:58:44.226Z,68.60
2018-09-24T03:01:14.547Z,68.20
2018-09-24T03:03:44.926Z,67.50
2018-09-24T03:06:15.265Z,67.80
2018-09-24T03:08:45.733Z,68.00
2018-09-24T03:11:16.198Z,68.10
2018-09-24T03:13:46.549Z,68.00
2018-09-24T03:16:16.986Z,68.70
2018-09-24T03:18:58.202Z,68.20
2018-09-24T03:21:29.088Z,68.00
2018-09-24T03:23:59.671Z,67.80
2018-09-24T03:26:30.074Z,68.30
2018-09-24T03:29:00.889Z,69.10
2018-09-24T03:31:37.118Z,69.40
2018-09-24T03:34:13.646Z,70.00
2018-09-24T03:36:44.221Z,70.10
2018-09-24T03:39:14.684Z,69.90
2018-09-24T03:41:45.515Z,70.00
2018-09-24T03:44:16.102Z,69.20
2018-09-24T03:46:46.467Z,69.40
2018-09-24T03:49:16.970Z,69.40
2018-09-24T03:51:47.398Z,69.40
2018-09-24T03:54:18.026Z,68.80
2018-09-24T03:56:48.444Z,68.70
2018-09-24T03:59:18.934Z,68.80
2018-09-24T04:01:49.283Z,68.50
2018-09-24T04:04:24.722Z,68.40
2018-09-24T04:07:00.170Z,68.40
2018-09-24T04:09:35.777Z,68.20
2018-09-24T04:12:11.246Z,68.30
2018-09-24T04:14:46.544Z,68.50
2018-09-24T04:17:22.210Z,68.70
2018-09-24T04:19:57.642Z,68.80
2018-09-24T04:22:32.991Z,68.90
2018-09-24T04:25:08.818Z,68.50
2018-09-24T04:27:44.317Z,68.20
2018-09-24T04:30:19.704Z,67.60
2018-09-24T04:32:55.213Z,67.80
2018-09-24T04:35:30.631Z,68.20
2018-09-24T04:38:06.159Z,68.20
2018-09-24T04:40:41.672Z,68.20
2018-09-24T04:43:17.248Z,68.20
2018-09-24T04:45:52.902Z,67.80
2018-09-24T04:48:28.405Z,68.00
2018-09-24T04:51:04.043Z,68.40
2018-09-24T04:53:50.163Z,68.40
2018-09-24T04:56:28.021Z,68.20
2018-09-24T04:59:04.042Z,68.50
2018-09-24T05:01:39.617Z,68.90
2018-09-24T05:04:15.176Z,68.60
2018-09-24T05:06:50.704Z,68.90
2018-09-24T05:09:26.425Z,69.20
2018-09-24T05:12:02.091Z,69.60
2018-09-24T05:14:37.874Z,69.10
2018-09-24T05:17:13.250Z,69.20
2018-09-24T05:19:48.802Z,69.40
2018-09-24T05:22:33.660Z,69.30
2018-09-24T05:25:09.629Z,69.50
2018-09-24T05:27:46.370Z,69.80
2018-09-24T05:30:24.390Z,69.80
2018-09-24T05:32:59.729Z,69.60
2018-09-24T05:35:35.358Z,70.10
2018-09-24T05:38:10.916Z,69.90
2018-09-24T05:40:46.398Z,69.40
2018-09-24T05:43:22.071Z,69.60
2018-09-24T05:45:57.713Z,69.60
2018-09-24T05:48:33.148Z,68.90
2018-09-24T05:51:09.270Z,69.20
2018-09-24T05:53:44.701Z,69.40
2018-09-24T05:56:20.115Z,69.10
2018-09-24T05:58:55.664Z,68.70
2018-09-24T06:01:31.060Z,68.60
2018-09-24T06:04:06.569Z,68.00
2018-09-24T06:06:42.006Z,67.30
2018-09-24T06:09:17.642Z,66.30
2018-09-24T06:11:53.140Z,65.90
2018-09-24T06:14:30.037Z,65.40
2018-09-24T06:17:10.923Z,64.90
2018-09-24T06:19:47.304Z,65.60
2018-09-24T06:22:24.273Z,65.30
2018-09-24T06:24:59.745Z,65.00
2018-09-24T06:27:35.258Z,65.00
2018-09-24T06:30:12.046Z,64.50
2018-09-24T06:32:47.677Z,63.70
2018-09-24T06:35:23.687Z,64.40
2018-09-24T06:37:59.267Z,65.00
2018-09-24T06:40:35.205Z,64.60
2018-09-24T06:43:10.848Z,64.70
2018-09-24T06:45:46.273Z,64.60
2018-09-24T06:48:22.281Z,63.80
2018-09-24T06:50:57.782Z,64.10
2018-09-24T06:53:33.299Z,63.90
2018-09-24T06:56:09.791Z,63.90
2018-09-24T06:58:50.461Z,62.80
2018-09-24T07:01:28.941Z,63.20
2018-09-24T07:04:04.941Z,63.00
2018-09-24T07:06:40.468Z,63.20
2018-09-24T07:09:16.980Z,62.60
2018-09-24T07:11:52.569Z,61.00
2018-09-24T07:14:28.167Z,61.60
2018-09-24T07:17:03.822Z,62.90
2018-09-24T07:19:39.681Z,61.20
2018-09-24T07:22:15.326Z,60.00
2018-09-24T07:24:51.033Z,59.00
2018-09-24T07:27:26.450Z,58.40
2018-09-24T07:30:01.994Z,59.30
2018-09-24T07:32:37.570Z,57.80
2018-09-24T07:35:13.090Z,56.70
2018-09-24T07:37:48.758Z,55.80
2018-09-24T07:40:24.466Z,55.90
2018-09-24T07:43:00.345Z,56.00
2018-09-24T07:45:36.434Z,54.60
2018-09-24T07:48:11.912Z,54.00
2018-09-24T07:50:47.474Z,53.70
2018-09-24T07:53:23.165Z,51.50
2018-09-24T07:55:59.131Z,50.30
2018-09-24T07:58:34.442Z,49.20
2018-09-24T08:01:10.002Z,50.50
2018-09-24T08:03:45.382Z,49.70
2018-09-24T08:06:20.922Z,47.40
2018-09-24T08:08:56.461Z,50.40
2018-09-24T08:11:32.055Z,49.50
2018-09-24T08:14:11.490Z,46.90
2018-09-24T08:16:47.054Z,46.70
2018-09-24T08:19:23.258Z,45.40
2018-09-24T08:21:58.731Z,44.70
2018-09-24T08:24:34.593Z,43.80
2018-09-24T08:27:16.365Z,44.50
2018-09-24T08:29:52.016Z,44.60
2018-09-24T08:32:27.930Z,43.50
2018-09-24T08:35:03.443Z,43.30
2018-09-24T08:37:39.158Z,41.20
2018-09-24T08:40:16.089Z,40.20
2018-09-24T08:42:53.323Z,40.10
2018-09-24T08:45:29.024Z,40.50
2018-09-24T08:48:04.673Z,38.80
2018-09-24T08:50:42.616Z,39.40
2018-09-24T08:53:18.456Z,40.90
2018-09-24T08:55:54.057Z,39.00
2018-09-24T08:58:29.873Z,37.10
2018-09-24T09:01:05.721Z,36.90
2018-09-24T09:03:51.602Z,36.50
2018-09-24T09:06:27.308Z,34.30
2018-09-24T09:09:02.811Z,34.60
2018-09-24T09:11:38.290Z,36.30
2018-09-24T09:14:16.330Z,35.30
2018-09-24T09:16:51.929Z,34.30
2018-09-24T09:19:27.738Z,32.50
2018-09-24T09:22:04.089Z,33.00
2018-09-24T09:24:39.649Z,31.90
2018-09-24T09:27:15.401Z,32.60
2018-09-24T09:29:50.823Z,31.30
2018-09-24T09:32:26.402Z,31.30
2018-09-24T09:35:01.948Z,30.10
2018-09-24T09:37:37.914Z,32.00
2018-09-24T09:40:13.321Z,31.70
2018-09-24T09:42:48.929Z,31.40
2018-09-24T09:45:24.435Z,31.10
2018-09-24T09:48:00.137Z,27.80
2018-09-24T09:50:35.665Z,28.40
2018-09-24T09:53:11.771Z,25.70
2018-09-24T09:55:47.344Z,28.50
2018-09-24T09:58:23.715Z,30.90
2018-09-24T10:00:59.638Z,33.10
2018-09-24T10:03:35.266Z,29.40
2018-09-24T10:06:10.838Z,26.10
2018-09-24T10:08:46.506Z,26.90
2018-09-24T10:11:22.307Z,23.50
2018-09-24T10:13:58.097Z,20.50
2018-09-24T10:16:33.429Z,22.00
2018-09-24T10:19:09.009Z,25.40
2018-09-24T10:21:44.606Z,26.30
2018-09-24T10:24:21.046Z,25.30
2018-09-24T10:26:56.761Z,23.70
2018-09-24T10:29:32.433Z,23.10
2018-09-24T10:32:08.068Z,21.90
2018-09-24T10:34:43.615Z,20.70
2018-09-24T10:37:18.925Z,20.90
2018-09-24T10:39:54.440Z,20.50
2018-09-24T10:42:31.378Z,20.80
2018-09-24T10:45:14.115Z,20.20
2018-09-24T10:47:49.933Z,19.30
2018-09-24T10:50:25.513Z,18.30
2018-09-24T10:53:01.332Z,18.80
2018-09-24T10:55:38.046Z,19.30
2018-09-24T10:58:14.258Z,20.70
2018-09-24T11:00:50.627Z,19.50
2018-09-24T11:03:26.379Z,20.00
2018-09-24T11:06:02.890Z,19.90
2018-09-24T11:08:38.934Z,19.10
2018-09-24T11:11:15.312Z,19.90
2018-09-24T11:13:53.610Z,19.90
2018-09-24T11:16:29.857Z,18.30
2018-09-24T11:19:05.639Z,17.80
2018-09-24T11:21:41.534Z,16.30
2018-09-24T11:24:17.838Z,16.20
2018-09-24T11:26:54.401Z,16.10
2018-09-24T11:29:30.565Z,16.20
2018-09-24T11:32:06.414Z,16.80
2018-09-24T11:34:42.892Z,16.80
2018-09-24T11:37:23.008Z,17.30
2018-09-24T11:39:58.947Z,16.70
2018-09-24T11:42:34.620Z,16.50
2018-09-24T11:45:10.809Z,15.90
2018-09-24T11:47:46.311Z,15.90
2018-09-24T11:50:22.390Z,15.50
2018-09-24T11:53:02.233Z,15.70
2018-09-24T11:55:38.325Z,15.80
2018-09-24T11:58:14.233Z,15.30
2018-09-24T12:00:50.441Z,14.90
2018-09-24T12:03:26.311Z,15.80
2018-09-24T12:06:02.536Z,16.30
2018-09-24T12:08:40.069Z,15.40
2018-09-24T12:11:16.014Z,15.40
2018-09-24T12:13:58.662Z,14.70
2018-09-24T12:16:54.279Z,14.70
2018-09-24T12:19:48.521Z,13.80
2018-09-24T12:22:25.654Z,13.00
2018-09-24T12:25:02.332Z,12.70
2018-09-24T12:27:39.002Z,13.90
2018-09-24T12:30:17.684Z,12.80
2018-09-24T12:32:54.744Z,14.00
2018-09-24T12:35:31.712Z,14.00
2018-09-24T12:38:17.197Z,13.90
2018-09-24T12:41:03.477Z,13.90
2018-09-24T12:43:42.667Z,12.70
2018-09-24T12:46:19.499Z,12.60
2018-09-24T12:48:56.961Z,12.30
2018-09-24T12:51:32.941Z,12.40
2018-09-24T12:54:09.308Z,12.00
2018-09-24T12:56:55.600Z,12.00
2018-09-24T12:59:41.138Z,12.10
2018-09-24T13:02:17.614Z,13.70
2018-09-24T13:04:53.440Z,14.50
2018-09-24T13:07:30.330Z,16.30
2018-09-24T13:10:06.110Z,17.00
2018-09-24T13:12:41.993Z,14.00
2018-09-24T13:15:17.850Z,13.70
2018-09-24T13:17:54.393Z,13.40
2018-09-24T13:20:30.241Z,11.60
2018-09-24T13:23:05.954Z,11.10
2018-09-24T13:25:43.490Z,11.70
2018-09-24T13:28:21.734Z,10.90
2018-09-24T13:31:02.500Z,11.30
2018-09-24T13:33:40.678Z,11.40
2018-09-24T13:36:16.297Z,12.50
2018-09-24T13:38:52.355Z,14.30
2018-09-24T13:41:28.972Z,16.40
2018-09-24T13:44:05.136Z,18.50
2018-09-24T13:46:41.159Z,18.10
2018-09-24T13:49:17.427Z,18.60
2018-09-24T13:51:53.026Z,18.50
2018-09-24T13:54:28.856Z,19.30
2018-09-24T13:57:07.807Z,20.00
2018-09-24T13:59:44.671Z,20.10
2018-09-24T14:02:23.599Z,21.00
2018-09-24T14:04:59.776Z,22.20
2018-09-24T14:07:35.725Z,23.80
2018-09-24T14:10:11.607Z,24.20
2018-09-24T14:12:47.190Z,25.20
2018-09-24T14:15:22.982Z,22.20
2018-09-24T14:17:59.021Z,19.30
2018-09-24T14:20:37.685Z,17.50
2018-09-24T14:23:15.214Z,16.50
2018-09-24T14:25:51.516Z,14.10
2018-09-24T14:28:27.101Z,12.70
2018-09-24T14:31:03.031Z,12.60
2018-09-24T14:33:39.130Z,12.10
2018-09-24T14:36:16.048Z,12.00
2018-09-24T14:38:53.382Z,11.70
2018-09-24T14:41:30.806Z,11.20
2018-09-24T14:44:08.501Z,10.90
2018-09-24T14:46:44.373Z,12.00
2018-09-24T14:49:19.928Z,14.10
2018-09-24T14:51:55.645Z,14.50
2018-09-24T14:54:32.512Z,14.20
2018-09-24T14:57:10.751Z,13.70
2018-09-24T14:59:46.576Z,13.10
2018-09-24T15:02:29.049Z,13.30
2018-09-24T15:05:09.981Z,13.00
2018-09-24T15:07:49.964Z,13.20
2018-09-24T15:10:28.786Z,14.40
2018-09-24T15:13:06.509Z,16.60
2018-09-24T15:15:53.826Z,18.30
2018-09-24T15:18:35.095Z,19.70
2018-09-24T15:21:14.444Z,21.60
2018-09-24T15:24:05.360Z,21.70
2018-09-24T15:26:59.832Z,22.70
2018-09-24T15:29:38.442Z,24.60
2018-09-24T15:32:16.393Z,25.70
2018-09-24T15:35:07.444Z,27.60
2018-09-24T15:37:49.722Z,28.60
2018-09-24T15:40:31.900Z,29.20
2018-09-24T15:43:34.606Z,27.90
2018-09-24T15:46:16.764Z,26.50
2018-09-24T15:49:00.597Z,23.70
2018-09-24T15:51:38.902Z,21.30
2018-09-24T15:54:17.057Z,20.60
2018-09-24T15:56:58.770Z,20.00
2018-09-24T15:59:35.286Z,19.90
2018-09-24T16:02:14.950Z,20.20
2018-09-24T16:04:52.737Z,21.30
2018-09-24T16:07:30.562Z,22.80
2018-09-24T16:10:09.352Z,24.00
2018-09-24T16:12:45.441Z,25.20
2018-09-24T16:15:29.180Z,26.20
2018-09-24T16:18:05.518Z,27.60
2018-09-24T16:20:43.542Z,28.70
2018-09-24T16:23:25.422Z,29.10
2018-09-24T16:26:04.024Z,29.50
2018-09-24T16:28:42.579Z,30.30
2018-09-24T16:31:19.163Z,29.90
2018-09-24T16:34:03.365Z,29.50
2018-09-24T16:36:42.364Z,31.40
2018-09-24T16:39:20.959Z,33.80
2018-09-24T16:42:11.495Z,34.80
2018-09-24T16:44:48.702Z,35.50
2018-09-24T16:47:25.092Z,36.90
2018-09-24T16:50:05.155Z,37.80
2018-09-24T16:52:49.276Z,38.30
2018-09-24T16:55:26.424Z,39.10
2018-09-24T16:58:06.300Z,40.40
2018-09-24T17:00:42.448Z,40.80
2018-09-24T17:03:28.799Z,41.70
2018-09-24T17:06:05.028Z,42.10
2018-09-24T17:08:41.572Z,42.90
2018-09-24T17:11:17.693Z,43.60
2018-09-24T17:13:53.377Z,44.80
2018-09-24T17:16:29.248Z,45.10
2018-09-24T17:19:09.581Z,45.40
2018-09-24T17:21:46.911Z,45.80
2018-09-24T17:24:23.752Z,45.70
2018-09-24T17:27:01.391Z,46.20
2018-09-24T17:29:38.200Z,46.80
2018-09-24T17:32:15.752Z,47.00
2018-09-24T17:34:51.707Z,47.90
2018-09-24T17:37:27.815Z,48.80
2018-09-24T17:40:03.950Z,49.30
2018-09-24T17:42:40.679Z,50.50
2018-09-24T17:45:17.956Z,50.60
2018-09-24T17:47:53.964Z,51.00
2018-09-24T17:50:29.675Z,51.30
2018-09-24T17:53:05.242Z,51.60
2018-09-24T17:55:41.151Z,51.60
2018-09-24T17:58:18.054Z,52.10
2018-09-24T18:00:53.998Z,52.70
2018-09-24T18:03:29.461Z,53.10
2018-09-24T18:06:05.190Z,53.70
2018-09-24T18:08:41.442Z,53.90
2018-09-24T18:11:17.669Z,53.60
2018-09-24T18:13:53.621Z,53.70
2018-09-24T18:16:29.195Z,53.90
2018-09-24T18:19:04.855Z,53.90
2018-09-24T18:21:41.258Z,53.80
2018-09-24T18:24:34.037Z,53.40
2018-09-24T18:27:10.387Z,53.50
2018-09-24T18:29:48.361Z,53.30
2018-09-24T18:32:25.629Z,53.40
2018-09-24T18:35:04.477Z,53.80
2018-09-24T18:37:41.705Z,54.20
2018-09-24T18:40:19.576Z,54.30
2018-09-24T18:42:57.089Z,54.30
2018-09-24T18:45:35.591Z,54.50
2018-09-24T18:48:14.194Z,54.60
2018-09-24T18:50:52.967Z,55.00
2018-09-24T18:53:30.359Z,55.50
2018-09-24T18:56:23.304Z,56.00
2018-09-24T18:59:03.421Z,56.30
2018-09-24T19:01:42.039Z,56.60
2018-09-24T19:04:19.209Z,56.60
2018-09-24T19:06:57.101Z,56.60
2018-09-24T19:09:33.680Z,56.40
2018-09-24T19:12:10.158Z,56.30
2018-09-24T19:14:46.581Z,56.40
2018-09-24T19:17:27.642Z,56.30
2018-09-24T19:20:03.168Z,56.40
2018-09-24T19:22:39.522Z,56.70
2018-09-24T19:25:16.273Z,57.00
2018-09-24T19:27:54.191Z,57.10
2018-09-24T19:30:31.877Z,57.10
2018-09-24T19:33:14.567Z,56.90
2018-09-24T19:35:53.162Z,56.70
2018-09-24T19:38:29.291Z,56.50
2018-09-24T19:41:08.501Z,56.40
2018-09-24T19:43:48.439Z,57.00
2018-09-24T20:07:41.872Z,55.30
2018-09-24T20:10:18.904Z,55.80
2018-09-24T20:12:55.282Z,56.00
2018-09-24T20:15:32.609Z,56.20
2018-09-24T20:18:09.409Z,56.60
2018-09-24T20:20:45.752Z,56.90
2018-09-24T20:23:22.492Z,57.00
2018-09-24T20:25:59.143Z,57.00
2018-09-24T20:28:37.496Z,57.10
2018-09-24T20:31:13.667Z,57.10
2018-09-24T20:33:51.974Z,57.20
2018-09-24T20:36:28.569Z,57.60
2018-09-24T20:39:04.311Z,57.20
2018-09-24T20:41:42.316Z,57.00
